F/V Manathia — FGSL — position and weather

sailwx.info

Track history (hours):
 
Tides and Currents Weather Stations Pressure Air Temp Water Temp Dewpoint Dewpoint Depression Visibility Wind Speed Wind Dir Waves Ship Positions

F/V Manathia

Last reported at 2017-Jul-27 02:43 UTC. Time now 2017-Jul-27 04:36 UTC.
Position N 47°41' W 004°22'.

Length 16 m.

Type: Fishing. MMSI: 228258000.

Date/timePositionNaut miles runAvg speedWind from/ knotsBaromVisibWave heightAir tempDewpointWater temp
2017-Jul-27 02:43N 47°41' W 004°22'5 5.4
2017-Jul-27 01:43N 47°46' W 004°17'2 0.5
2017-Jul-26 22:43N 47°44' W 004°19'12 0.3
2017-Jul-25 06:30N 47°38' W 004°34'2 1.0
2017-Jul-25 04:54N 47°37' W 004°32'7 2.9
2017-Jul-25 02:32N 47°41' W 004°24'1 5.6
2017-Jul-25 02:25N 47°41' W 004°23'2 5.7
2017-Jul-25 02:00N 47°43' W 004°22'  
2017-Jul-20 12:48N 47°42' W 004°22'23 1.0
2017-Jul-19 13:34N 47°41' W 004°55'0 3.5
2017-Jul-19 13:28N 47°41' W 004°55'1 0.5
2017-Jul-19 11:25N 47°40' W 004°54'3 3.7
2017-Jul-19 10:41N 47°42' W 004°58'0 1.2
2017-Jul-19 10:30N 47°42' W 004°58'2 3.4
2017-Jul-19 09:59N 47°43' W 004°57'1 2.8
2017-Jul-19 09:29N 47°44' W 004°55'2 3.5
2017-Jul-19 09:00N 47°42' W 004°55'2 2.4
2017-Jul-19 08:11N 47°41' W 004°58'1 3.3
2017-Jul-19 08:00N 47°42' W 004°58'2 3.0
2017-Jul-19 07:27N 47°43' W 004°57'1 2.2
2017-Jul-19 07:00N 47°44' W 004°56'2 3.0
2017-Jul-19 06:30N 47°42' W 004°55'2 3.5
2017-Jul-19 05:58N 47°41' W 004°56'1 2.8
2017-Jul-19 05:28N 47°42' W 004°58'1 3.2
2017-Jul-19 05:00N 47°43' W 004°57'2 3.1
2017-Jul-19 04:30N 47°44' W 004°56'2 3.3
2017-Jul-19 04:00N 47°45' W 004°53'3 6.4
2017-Jul-19 03:29N 47°45' W 004°49'7 7.9
2017-Jul-19 02:36N 47°45' W 004°38'2 8.0
2017-Jul-19 02:22N 47°45' W 004°35'7 8.0
2017-Jul-19 01:32N 47°46' W 004°25'0 8.7
2017-Jul-19 01:30N 47°46' W 004°25'5 8.1
2017-Jul-19 00:54N 47°47' W 004°18'0 0.1
2017-Jul-18 23:15N 47°47' W 004°18'27 4.8
2017-Jul-18 17:33N 47°42' W 004°57'2 3.1
2017-Jul-18 16:54N 47°44' W 004°57'1 0.3
2017-Jul-18 13:21N 47°43' W 004°57'1 3.6
2017-Jul-18 12:59N 47°44' W 004°56'1 0.7
2017-Jul-18 10:56N 47°43' W 004°55'2 0.7
2017-Jul-18 08:32N 47°42' W 004°55'2 3.7
2017-Jul-18 08:07N 47°41' W 004°53'2 0.6
2017-Jul-18 05:15N 47°41' W 004°55'1 3.5
2017-Jul-18 04:59N 47°41' W 004°54'2 3.8
2017-Jul-18 04:30N 47°41' W 004°51'4 3.9
2017-Jul-18 03:34N 47°40' W 004°46'1 9.2
2017-Jul-18 03:30N 47°41' W 004°45'5 9.1
2017-Jul-18 03:00N 47°42' W 004°39'4 8.7
2017-Jul-18 02:31N 47°43' W 004°33'5 7.9
2017-Jul-18 01:49N 47°45' W 004°25'3 8.2
2017-Jul-18 01:28N 47°46' W 004°21'19 1.3
2017-Jul-17 11:21N 47°40' W 004°47'4 1.9
2017-Jul-17 09:19N 47°43' W 004°51'2 3.3
2017-Jul-17 08:48N 47°42' W 004°49'2 3.2
2017-Jul-17 08:14N 47°42' W 004°46'0 1.6
2017-Jul-17 07:58N 47°42' W 004°45'4 1.2
2017-Jul-17 04:49N 47°39' W 004°41'1 3.7
2017-Jul-17 04:29N 47°39' W 004°39'3 3.6
2017-Jul-17 03:45N 47°38' W 004°36'1 4.1
2017-Jul-17 03:29N 47°38' W 004°34'2 4.0
2017-Jul-17 02:53N 47°40' W 004°31'  
Track history (hours):
 
Tides and Currents Weather Stations Pressure Air Temp Water Temp Dewpoint Dewpoint Depression Visibility Wind Speed Wind Dir Waves Ship Positions

F/V Manathia

Last reported at 2017-Jul-27 02:43 UTC. Time now 2017-Jul-27 04:36 UTC.
Position N 47°41' W 004°22'.

Length 16 m.

Type: Fishing. MMSI: 228258000.

Date/timePositionNaut miles runAvg speedWind from/ knotsBaromVisibWave heightAir tempDewpointWater temp
2017-Jul-27 02:43N 47°41' W 004°22'5 5.4
2017-Jul-27 01:43N 47°46' W 004°17'2 0.5
2017-Jul-26 22:43N 47°44' W 004°19'12 0.3
2017-Jul-25 06:30N 47°38' W 004°34'2 1.0
2017-Jul-25 04:54N 47°37' W 004°32'7 2.9
2017-Jul-25 02:32N 47°41' W 004°24'1 5.6
2017-Jul-25 02:25N 47°41' W 004°23'2 5.7
2017-Jul-25 02:00N 47°43' W 004°22'  
2017-Jul-20 12:48N 47°42' W 004°22'23 1.0
2017-Jul-19 13:34N 47°41' W 004°55'0 3.5
2017-Jul-19 13:28N 47°41' W 004°55'1 0.5
2017-Jul-19 11:25N 47°40' W 004°54'3 3.7
2017-Jul-19 10:41N 47°42' W 004°58'0 1.2
2017-Jul-19 10:30N 47°42' W 004°58'2 3.4
2017-Jul-19 09:59N 47°43' W 004°57'1 2.8
2017-Jul-19 09:29N 47°44' W 004°55'2 3.5
2017-Jul-19 09:00N 47°42' W 004°55'2 2.4
2017-Jul-19 08:11N 47°41' W 004°58'1 3.3
2017-Jul-19 08:00N 47°42' W 004°58'2 3.0
2017-Jul-19 07:27N 47°43' W 004°57'1 2.2
2017-Jul-19 07:00N 47°44' W 004°56'2 3.0
2017-Jul-19 06:30N 47°42' W 004°55'2 3.5
2017-Jul-19 05:58N 47°41' W 004°56'1 2.8
2017-Jul-19 05:28N 47°42' W 004°58'1 3.2
2017-Jul-19 05:00N 47°43' W 004°57'2 3.1
2017-Jul-19 04:30N 47°44' W 004°56'2 3.3
2017-Jul-19 04:00N 47°45' W 004°53'3 6.4
2017-Jul-19 03:29N 47°45' W 004°49'7 7.9
2017-Jul-19 02:36N 47°45' W 004°38'2 8.0
2017-Jul-19 02:22N 47°45' W 004°35'7 8.0
2017-Jul-19 01:32N 47°46' W 004°25'0 8.7
2017-Jul-19 01:30N 47°46' W 004°25'5 8.1
2017-Jul-19 00:54N 47°47' W 004°18'0 0.1
2017-Jul-18 23:15N 47°47' W 004°18'27 4.8
2017-Jul-18 17:33N 47°42' W 004°57'2 3.1
2017-Jul-18 16:54N 47°44' W 004°57'1 0.3
2017-Jul-18 13:21N 47°43' W 004°57'1 3.6
2017-Jul-18 12:59N 47°44' W 004°56'1 0.7
2017-Jul-18 10:56N 47°43' W 004°55'2 0.7
2017-Jul-18 08:32N 47°42' W 004°55'2 3.7
2017-Jul-18 08:07N 47°41' W 004°53'2 0.6
2017-Jul-18 05:15N 47°41' W 004°55'1 3.5
2017-Jul-18 04:59N 47°41' W 004°54'2 3.8
2017-Jul-18 04:30N 47°41' W 004°51'4 3.9
2017-Jul-18 03:34N 47°40' W 004°46'1 9.2
2017-Jul-18 03:30N 47°41' W 004°45'5 9.1
2017-Jul-18 03:00N 47°42' W 004°39'4 8.7
2017-Jul-18 02:31N 47°43' W 004°33'5 7.9
2017-Jul-18 01:49N 47°45' W 004°25'3 8.2
2017-Jul-18 01:28N 47°46' W 004°21'19 1.3
2017-Jul-17 11:21N 47°40' W 004°47'4 1.9
2017-Jul-17 09:19N 47°43' W 004°51'2 3.3
2017-Jul-17 08:48N 47°42' W 004°49'2 3.2
2017-Jul-17 08:14N 47°42' W 004°46'0 1.6
2017-Jul-17 07:58N 47°42' W 004°45'4 1.2
2017-Jul-17 04:49N 47°39' W 004°41'1 3.7
2017-Jul-17 04:29N 47°39' W 004°39'3 3.6
2017-Jul-17 03:45N 47°38' W 004°36'1 4.1
2017-Jul-17 03:29N 47°38' W 004°34'2 4.0
2017-Jul-17 02:53N 47°40' W 004°31'  

Dump ship's entire track history